sensor_id;sensor_type;location;lat;lon;timestamp;pressure;altitude;pressure_sealevel;temperature
29701;BMP280;57917;51.380;-0.176;2022-07-23T00:02:49;101615.63;;;19.04
29701;BMP280;57917;51.380;-0.176;2022-07-23T00:08:36;101613.88;;;19.08
29701;BMP280;57917;51.380;-0.176;2022-07-23T00:14:26;101613.44;;;19.15
29701;BMP280;57917;51.380;-0.176;2022-07-23T00:20:13;101620.81;;;19.09
29701;BMP280;57917;51.380;-0.176;2022-07-23T00:26:01;101621.78;;;19.13
29701;BMP280;57917;51.380;-0.176;2022-07-23T00:31:48;101630.75;;;19.09
29701;BMP280;57917;51.380;-0.176;2022-07-23T00:37:35;101622.44;;;19.10
29701;BMP280;57917;51.380;-0.176;2022-07-23T00:43:25;101615.63;;;19.04
29701;BMP280;57917;51.380;-0.176;2022-07-23T00:49:12;101607.72;;;19.08
29701;BMP280;57917;51.380;-0.176;2022-07-23T00:55:03;101611.31;;;19.03
29701;BMP280;57917;51.380;-0.176;2022-07-23T01:00:50;101603.09;;;18.91
29701;BMP280;57917;51.380;-0.176;2022-07-23T01:06:39;101594.25;;;18.99
29701;BMP280;57917;51.380;-0.176;2022-07-23T01:12:26;101593.47;;;18.99
29701;BMP280;57917;51.380;-0.176;2022-07-23T01:18:14;101591.72;;;18.94
29701;BMP280;57917;51.380;-0.176;2022-07-23T01:24:03;101595.53;;;18.93
29701;BMP280;57917;51.380;-0.176;2022-07-23T01:29:57;101597.84;;;18.86
29701;BMP280;57917;51.380;-0.176;2022-07-23T01:35:44;101608.00;;;18.89
29701;BMP280;57917;51.380;-0.176;2022-07-23T01:41:37;101608.31;;;18.96
29701;BMP280;57917;51.380;-0.176;2022-07-23T01:47:25;101604.31;;;18.85
29701;BMP280;57917;51.380;-0.176;2022-07-23T01:53:15;101604.94;;;18.82
29701;BMP280;57917;51.380;-0.176;2022-07-23T01:59:02;101599.28;;;18.75
29701;BMP280;57917;51.380;-0.176;2022-07-23T02:04:49;101601.91;;;18.67
29701;BMP280;57917;51.380;-0.176;2022-07-23T02:10:38;101608.19;;;18.62
29701;BMP280;57917;51.380;-0.176;2022-07-23T02:16:25;101607.75;;;18.68
29701;BMP280;57917;51.380;-0.176;2022-07-23T02:22:12;101614.88;;;18.73
29701;BMP280;57917;51.380;-0.176;2022-07-23T02:27:59;101615.16;;;18.71
29701;BMP280;57917;51.380;-0.176;2022-07-23T02:33:46;101616.56;;;18.69
29701;BMP280;57917;51.380;-0.176;2022-07-23T02:39:35;101615.16;;;18.71
29701;BMP280;57917;51.380;-0.176;2022-07-23T02:45:23;101613.38;;;18.67
29701;BMP280;57917;51.380;-0.176;2022-07-23T02:51:12;101612.44;;;18.63
29701;BMP280;57917;51.380;-0.176;2022-07-23T02:57:07;101603.91;;;18.61
29701;BMP280;57917;51.380;-0.176;2022-07-23T03:02:54;101614.41;;;18.71
29701;BMP280;57917;51.380;-0.176;2022-07-23T03:08:40;101608.25;;;18.71
29701;BMP280;57917;51.380;-0.176;2022-07-23T03:14:27;101609.91;;;18.58
29701;BMP280;57917;51.380;-0.176;2022-07-23T03:20:15;101617.69;;;18.37
29701;BMP280;57917;51.380;-0.176;2022-07-23T03:26:02;101613.72;;;18.35
29701;BMP280;57917;51.380;-0.176;2022-07-23T03:31:49;101609.97;;;18.44
29701;BMP280;57917;51.380;-0.176;2022-07-23T03:37:36;101611.56;;;18.45
29701;BMP280;57917;51.380;-0.176;2022-07-23T03:43:23;101605.91;;;18.47
29701;BMP280;57917;51.380;-0.176;2022-07-23T03:49:14;101595.06;;;18.52
29701;BMP280;57917;51.380;-0.176;2022-07-23T03:55:02;101597.59;;;18.57
29701;BMP280;57917;51.380;-0.176;2022-07-23T04:00:50;101595.94;;;18.39
29701;BMP280;57917;51.380;-0.176;2022-07-23T04:06:37;101599.69;;;18.38
29701;BMP280;57917;51.380;-0.176;2022-07-23T04:12:24;101600.00;;;18.36
29701;BMP280;57917;51.380;-0.176;2022-07-23T04:18:13;101614.72;;;18.17
29701;BMP280;57917;51.380;-0.176;2022-07-23T04:24:11;101609.91;;;18.05
29701;BMP280;57917;51.380;-0.176;2022-07-23T04:30:00;101612.41;;;18.02
29701;BMP280;57917;51.380;-0.176;2022-07-23T04:35:48;101605.28;;;17.97
29701;BMP280;57917;51.380;-0.176;2022-07-23T04:41:38;101606.59;;;17.86
29701;BMP280;57917;51.380;-0.176;2022-07-23T04:47:25;101609.50;;;17.76
29701;BMP280;57917;51.380;-0.176;2022-07-23T04:53:16;101605.13;;;17.80
29701;BMP280;57917;51.380;-0.176;2022-07-23T04:59:04;101611.91;;;18.00
29701;BMP280;57917;51.380;-0.176;2022-07-23T05:04:51;101607.56;;;19.04
29701;BMP280;57917;51.380;-0.176;2022-07-23T05:10:38;101606.00;;;20.22
29701;BMP280;57917;51.380;-0.176;2022-07-23T05:16:25;101608.53;;;21.14
29701;BMP280;57917;51.380;-0.176;2022-07-23T05:22:21;101603.72;;;21.93
29701;BMP280;57917;51.380;-0.176;2022-07-23T05:28:09;101603.59;;;22.47
29701;BMP280;57917;51.380;-0.176;2022-07-23T05:33:56;101613.19;;;23.08
29701;BMP280;57917;51.380;-0.176;2022-07-23T05:39:43;101594.94;;;23.72
29701;BMP280;57917;51.380;-0.176;2022-07-23T05:45:31;101585.94;;;23.99
29701;BMP280;57917;51.380;-0.176;2022-07-23T05:51:20;101591.47;;;23.59
29701;BMP280;57917;51.380;-0.176;2022-07-23T05:57:09;101600.44;;;22.45
29701;BMP280;57917;51.380;-0.176;2022-07-23T06:02:58;101597.50;;;21.81
29701;BMP280;57917;51.380;-0.176;2022-07-23T06:08:48;101594.75;;;21.36
29701;BMP280;57917;51.380;-0.176;2022-07-23T06:14:35;101615.00;;;20.93
29701;BMP280;57917;51.380;-0.176;2022-07-23T06:20:24;101596.47;;;21.20
29701;BMP280;57917;51.380;-0.176;2022-07-23T06:26:11;101595.31;;;21.01
29701;BMP280;57917;51.380;-0.176;2022-07-23T06:31:58;101597.53;;;21.07
29701;BMP280;57917;51.380;-0.176;2022-07-23T06:37:50;101617.25;;;20.53
29701;BMP280;57917;51.380;-0.176;2022-07-23T06:43:37;101611.53;;;20.63
29701;BMP280;57917;51.380;-0.176;2022-07-23T06:49:27;101625.19;;;20.87
29701;BMP280;57917;51.380;-0.176;2022-07-23T06:55:16;101619.63;;;20.92
29701;BMP280;57917;51.380;-0.176;2022-07-23T07:01:04;101616.81;;;21.09
29701;BMP280;57917;51.380;-0.176;2022-07-23T07:06:51;101640.78;;;21.02
29701;BMP280;57917;51.380;-0.176;2022-07-23T07:12:38;101624.69;;;21.14
29701;BMP280;57917;51.380;-0.176;2022-07-23T07:18:24;101629.63;;;20.83
29701;BMP280;57917;51.380;-0.176;2022-07-23T07:24:11;101632.38;;;21.04
29701;BMP280;57917;51.380;-0.176;2022-07-23T07:29:58;101634.75;;;21.05
29701;BMP280;57917;51.380;-0.176;2022-07-23T07:35:45;101628.56;;;21.05
29701;BMP280;57917;51.380;-0.176;2022-07-23T07:41:32;101631.84;;;21.10
29701;BMP280;57917;51.380;-0.176;2022-07-23T07:47:19;101627.22;;;21.19
29701;BMP280;57917;51.380;-0.176;2022-07-23T07:53:09;101614.56;;;21.40
29701;BMP280;57917;51.380;-0.176;2022-07-23T07:58:56;101618.41;;;21.51
29701;BMP280;57917;51.380;-0.176;2022-07-23T08:04:47;101620.44;;;22.20
29701;BMP280;57917;51.380;-0.176;2022-07-23T08:10:42;101606.88;;;23.04
29701;BMP280;57917;51.380;-0.176;2022-07-23T08:16:29;101606.59;;;23.76
29701;BMP280;57917;51.380;-0.176;2022-07-23T08:29:11;101602.53;;;24.63
29701;BMP280;57917;51.380;-0.176;2022-07-23T08:34:59;101603.47;;;25.05
29701;BMP280;57917;51.380;-0.176;2022-07-23T08:40:48;101595.28;;;25.62
29701;BMP280;57917;51.380;-0.176;2022-07-23T08:46:36;101587.63;;;25.90
29701;BMP280;57917;51.380;-0.176;2022-07-23T08:52:30;101586.41;;;26.36
29701;BMP280;57917;51.380;-0.176;2022-07-23T08:58:17;101589.06;;;26.62
29701;BMP280;57917;51.380;-0.176;2022-07-23T09:04:07;101586.19;;;27.14
29701;BMP280;57917;51.380;-0.176;2022-07-23T09:10:10;101579.59;;;27.11
29701;BMP280;57917;51.380;-0.176;2022-07-23T09:16:17;101588.00;;;27.36
29701;BMP280;57917;51.380;-0.176;2022-07-23T09:22:20;101584.81;;;27.70
29701;BMP280;57917;51.380;-0.176;2022-07-23T09:28:13;101584.56;;;27.42
29701;BMP280;57917;51.380;-0.176;2022-07-23T09:34:08;101600.53;;;27.94
29701;BMP280;57917;51.380;-0.176;2022-07-23T09:40:07;101595.16;;;28.05
29701;BMP280;57917;51.380;-0.176;2022-07-23T09:46:25;101597.81;;;28.52
29701;BMP280;57917;51.380;-0.176;2022-07-23T09:52:26;101596.56;;;28.39
29701;BMP280;57917;51.380;-0.176;2022-07-23T09:58:21;101604.59;;;29.00
29701;BMP280;57917;51.380;-0.176;2022-07-23T10:04:11;101592.84;;;28.78
29701;BMP280;57917;51.380;-0.176;2022-07-23T10:10:18;101587.78;;;28.84
29701;BMP280;57917;51.380;-0.176;2022-07-23T10:16:19;101585.81;;;28.74
29701;BMP280;57917;51.380;-0.176;2022-07-23T10:22:15;101594.44;;;28.97
29701;BMP280;57917;51.380;-0.176;2022-07-23T10:34:37;101589.75;;;28.87
29701;BMP280;57917;51.380;-0.176;2022-07-23T10:40:31;101582.38;;;29.08
29701;BMP280;57917;51.380;-0.176;2022-07-23T10:46:35;101577.72;;;29.23
29701;BMP280;57917;51.380;-0.176;2022-07-23T10:52:31;101569.94;;;29.28
29701;BMP280;57917;51.380;-0.176;2022-07-23T10:58:45;101559.81;;;29.64
29701;BMP280;57917;51.380;-0.176;2022-07-23T11:05:00;101572.28;;;29.51
29701;BMP280;57917;51.380;-0.176;2022-07-23T11:16:54;101558.34;;;30.52
29701;BMP280;57917;51.380;-0.176;2022-07-23T11:28:35;101556.34;;;30.67
29701;BMP280;57917;51.380;-0.176;2022-07-23T11:40:34;101560.44;;;30.96
29701;BMP280;57917;51.380;-0.176;2022-07-23T11:46:27;101548.03;;;30.81
29701;BMP280;57917;51.380;-0.176;2022-07-23T11:52:14;101536.94;;;31.02
29701;BMP280;57917;51.380;-0.176;2022-07-23T11:58:10;101545.47;;;30.56
29701;BMP280;57917;51.380;-0.176;2022-07-23T12:03:57;101535.88;;;30.92
29701;BMP280;57917;51.380;-0.176;2022-07-23T12:09:47;101524.56;;;30.08
29701;BMP280;57917;51.380;-0.176;2022-07-23T12:15:57;101525.38;;;30.05
29701;BMP280;57917;51.380;-0.176;2022-07-23T12:21:47;101535.50;;;30.15
29701;BMP280;57917;51.380;-0.176;2022-07-23T12:27:35;101535.47;;;30.25
29701;BMP280;57917;51.380;-0.176;2022-07-23T12:33:27;101522.31;;;29.92
29701;BMP280;57917;51.380;-0.176;2022-07-23T12:39:30;101517.69;;;29.68
29701;BMP280;57917;51.380;-0.176;2022-07-23T12:45:26;101520.84;;;29.70
29701;BMP280;57917;51.380;-0.176;2022-07-23T12:51:25;101515.34;;;29.67
29701;BMP280;57917;51.380;-0.176;2022-07-23T12:57:15;101512.63;;;29.11
29701;BMP280;57917;51.380;-0.176;2022-07-23T13:03:30;101501.38;;;29.26
29701;BMP280;57917;51.380;-0.176;2022-07-23T13:09:23;101476.81;;;29.40
29701;BMP280;57917;51.380;-0.176;2022-07-23T13:15:12;101472.53;;;29.32
29701;BMP280;57917;51.380;-0.176;2022-07-23T13:21:00;101462.81;;;29.28
29701;BMP280;57917;51.380;-0.176;2022-07-23T13:26:48;101470.19;;;29.41
29701;BMP280;57917;51.380;-0.176;2022-07-23T13:32:39;101476.84;;;29.12
29701;BMP280;57917;51.380;-0.176;2022-07-23T13:38:27;101485.75;;;28.88
29701;BMP280;57917;51.380;-0.176;2022-07-23T13:44:16;101472.88;;;28.64
29701;BMP280;57917;51.380;-0.176;2022-07-23T13:50:07;101476.69;;;28.39
29701;BMP280;57917;51.380;-0.176;2022-07-23T13:55:54;101484.06;;;28.35
29701;BMP280;57917;51.380;-0.176;2022-07-23T14:01:46;101474.94;;;27.96
29701;BMP280;57917;51.380;-0.176;2022-07-23T14:07:54;101482.59;;;27.73
29701;BMP280;57917;51.380;-0.176;2022-07-23T14:13:41;101480.75;;;27.91
29701;BMP280;57917;51.380;-0.176;2022-07-23T14:19:29;101485.50;;;28.08
29701;BMP280;57917;51.380;-0.176;2022-07-23T14:25:17;101484.72;;;27.43
29701;BMP280;57917;51.380;-0.176;2022-07-23T14:31:04;101481.47;;;27.27
29701;BMP280;57917;51.380;-0.176;2022-07-23T14:36:58;101495.25;;;27.48
29701;BMP280;57917;51.380;-0.176;2022-07-23T14:42:47;101499.34;;;27.78
29701;BMP280;57917;51.380;-0.176;2022-07-23T14:48:36;101512.88;;;27.68
29701;BMP280;57917;51.380;-0.176;2022-07-23T14:54:24;101502.63;;;27.51
29701;BMP280;57917;51.380;-0.176;2022-07-23T15:00:13;101502.91;;;27.35
29701;BMP280;57917;51.380;-0.176;2022-07-23T15:06:02;101500.38;;;27.60
29701;BMP280;57917;51.380;-0.176;2022-07-23T15:11:49;101501.38;;;27.38
29701;BMP280;57917;51.380;-0.176;2022-07-23T15:17:36;101505.34;;;27.07
29701;BMP280;57917;51.380;-0.176;2022-07-23T15:23:23;101505.00;;;27.09
29701;BMP280;57917;51.380;-0.176;2022-07-23T15:29:11;101482.91;;;26.74
29701;BMP280;57917;51.380;-0.176;2022-07-23T15:34:59;101482.09;;;26.73
29701;BMP280;57917;51.380;-0.176;2022-07-23T15:40:49;101480.72;;;26.86
29701;BMP280;57917;51.380;-0.176;2022-07-23T15:46:36;101470.78;;;27.04
29701;BMP280;57917;51.380;-0.176;2022-07-23T15:52:23;101469.72;;;26.76
29701;BMP280;57917;51.380;-0.176;2022-07-23T15:58:18;101466.28;;;26.46
29701;BMP280;57917;51.380;-0.176;2022-07-23T16:04:17;101471.53;;;26.32
29701;BMP280;57917;51.380;-0.176;2022-07-23T16:10:07;101464.03;;;26.88
29701;BMP280;57917;51.380;-0.176;2022-07-23T16:15:58;101472.09;;;26.81
29701;BMP280;57917;51.380;-0.176;2022-07-23T16:21:47;101470.69;;;26.94
29701;BMP280;57917;51.380;-0.176;2022-07-23T16:27:37;101478.53;;;26.66
29701;BMP280;57917;51.380;-0.176;2022-07-23T16:33:25;101477.28;;;26.27
29701;BMP280;57917;51.380;-0.176;2022-07-23T16:39:12;101477.28;;;25.97
29701;BMP280;57917;51.380;-0.176;2022-07-23T16:45:01;101480.53;;;26.10
29701;BMP280;57917;51.380;-0.176;2022-07-23T16:50:53;101480.31;;;25.92
29701;BMP280;57917;51.380;-0.176;2022-07-23T16:56:41;101470.88;;;25.60
29701;BMP280;57917;51.380;-0.176;2022-07-23T17:02:31;101480.91;;;25.56
29701;BMP280;57917;51.380;-0.176;2022-07-23T17:08:21;101484.28;;;25.50
29701;BMP280;57917;51.380;-0.176;2022-07-23T17:14:08;101479.63;;;25.73
29701;BMP280;57917;51.380;-0.176;2022-07-23T17:20:03;101493.41;;;25.64
29701;BMP280;57917;51.380;-0.176;2022-07-23T17:25:54;101482.19;;;25.21
29701;BMP280;57917;51.380;-0.176;2022-07-23T17:31:47;101499.66;;;25.01
29701;BMP280;57917;51.380;-0.176;2022-07-23T17:37:34;101509.53;;;24.71
29701;BMP280;57917;51.380;-0.176;2022-07-23T17:43:23;101518.91;;;24.58
29701;BMP280;57917;51.380;-0.176;2022-07-23T17:49:12;101505.06;;;24.44
29701;BMP280;57917;51.380;-0.176;2022-07-23T17:55:00;101513.34;;;24.51
29701;BMP280;57917;51.380;-0.176;2022-07-23T18:00:48;101497.91;;;24.36
29701;BMP280;57917;51.380;-0.176;2022-07-23T18:06:35;101490.03;;;24.12
29701;BMP280;57917;51.380;-0.176;2022-07-23T18:12:22;101494.75;;;24.15
29701;BMP280;57917;51.380;-0.176;2022-07-23T18:18:10;101491.44;;;24.06
29701;BMP280;57917;51.380;-0.176;2022-07-23T18:23:57;101492.69;;;23.77
29701;BMP280;57917;51.380;-0.176;2022-07-23T18:29:47;101500.88;;;23.50
29701;BMP280;57917;51.380;-0.176;2022-07-23T18:35:35;101508.91;;;23.62
29701;BMP280;57917;51.380;-0.176;2022-07-23T18:41:23;101506.53;;;23.45
29701;BMP280;57917;51.380;-0.176;2022-07-23T18:47:11;101504.06;;;23.24
29701;BMP280;57917;51.380;-0.176;2022-07-23T18:52:58;101495.63;;;22.98
29701;BMP280;57917;51.380;-0.176;2022-07-23T18:58:45;101498.03;;;23.15
29701;BMP280;57917;51.380;-0.176;2022-07-23T19:04:33;101506.94;;;23.04
29701;BMP280;57917;51.380;-0.176;2022-07-23T19:10:22;101491.69;;;22.96
29701;BMP280;57917;51.380;-0.176;2022-07-23T19:16:09;101505.66;;;22.86
29701;BMP280;57917;51.380;-0.176;2022-07-23T19:21:55;101502.56;;;22.72
29701;BMP280;57917;51.380;-0.176;2022-07-23T19:27:42;101511.78;;;22.71
29701;BMP280;57917;51.380;-0.176;2022-07-23T19:33:32;101513.59;;;22.67
29701;BMP280;57917;51.380;-0.176;2022-07-23T19:39:20;101520.56;;;22.56
29701;BMP280;57917;51.380;-0.176;2022-07-23T19:45:08;101503.94;;;22.54
29701;BMP280;57917;51.380;-0.176;2022-07-23T19:50:55;101511.84;;;22.47
29701;BMP280;57917;51.380;-0.176;2022-07-23T19:56:42;101510.25;;;22.46
29701;BMP280;57917;51.380;-0.176;2022-07-23T20:02:29;101525.78;;;22.25
29701;BMP280;57917;51.380;-0.176;2022-07-23T20:08:17;101523.75;;;22.09
29701;BMP280;57917;51.380;-0.176;2022-07-23T20:14:04;101524.53;;;21.86
29701;BMP280;57917;51.380;-0.176;2022-07-23T20:19:57;101524.03;;;21.72
29701;BMP280;57917;51.380;-0.176;2022-07-23T20:25:46;101516.91;;;21.55
29701;BMP280;57917;51.380;-0.176;2022-07-23T20:31:47;101528.03;;;21.54
29701;BMP280;57917;51.380;-0.176;2022-07-23T20:37:38;101535.47;;;21.36
29701;BMP280;57917;51.380;-0.176;2022-07-23T20:43:28;101533.81;;;21.32
29701;BMP280;57917;51.380;-0.176;2022-07-23T20:49:18;101528.16;;;21.37
29701;BMP280;57917;51.380;-0.176;2022-07-23T20:55:05;101520.44;;;21.35
29701;BMP280;57917;51.380;-0.176;2022-07-23T21:00:54;101528.41;;;21.32
29701;BMP280;57917;51.380;-0.176;2022-07-23T21:06:41;101516.97;;;21.35
29701;BMP280;57917;51.380;-0.176;2022-07-23T21:12:28;101526.97;;;21.14
29701;BMP280;57917;51.380;-0.176;2022-07-23T21:18:15;101521.31;;;21.27
29701;BMP280;57917;51.380;-0.176;2022-07-23T21:24:04;101518.81;;;21.22
29701;BMP280;57917;51.380;-0.176;2022-07-23T21:29:57;101514.28;;;20.94
29701;BMP280;57917;51.380;-0.176;2022-07-23T21:35:51;101515.94;;;20.86
29701;BMP280;57917;51.380;-0.176;2022-07-23T21:41:54;101514.81;;;20.87
29701;BMP280;57917;51.380;-0.176;2022-07-23T21:47:42;101504.53;;;20.81
29701;BMP280;57917;51.380;-0.176;2022-07-23T21:54:07;101503.44;;;20.61
29701;BMP280;57917;51.380;-0.176;2022-07-23T22:00:07;101503.00;;;20.59
29701;BMP280;57917;51.380;-0.176;2022-07-23T22:05:58;101513.91;;;20.54
29701;BMP280;57917;51.380;-0.176;2022-07-23T22:11:45;101508.16;;;20.35
29701;BMP280;57917;51.380;-0.176;2022-07-23T22:17:34;101503.53;;;20.07
29701;BMP280;57917;51.380;-0.176;2022-07-23T22:23:22;101509.03;;;20.10
29701;BMP280;57917;51.380;-0.176;2022-07-23T22:29:10;101502.25;;;20.13
29701;BMP280;57917;51.380;-0.176;2022-07-23T22:34:57;101495.97;;;20.00
29701;BMP280;57917;51.380;-0.176;2022-07-23T22:40:54;101500.22;;;20.10
29701;BMP280;57917;51.380;-0.176;2022-07-23T22:46:42;101490.31;;;19.93
29701;BMP280;57917;51.380;-0.176;2022-07-23T22:52:29;101498.03;;;19.95
29701;BMP280;57917;51.380;-0.176;2022-07-23T22:58:16;101491.03;;;20.02
29701;BMP280;57917;51.380;-0.176;2022-07-23T23:04:03;101489.16;;;20.03
29701;BMP280;57917;51.380;-0.176;2022-07-23T23:09:50;101486.03;;;19.92
29701;BMP280;57917;51.380;-0.176;2022-07-23T23:15:37;101481.81;;;19.74
29701;BMP280;57917;51.380;-0.176;2022-07-23T23:21:24;101490.69;;;19.66
29701;BMP280;57917;51.380;-0.176;2022-07-23T23:27:16;101480.59;;;19.63
29701;BMP280;57917;51.380;-0.176;2022-07-23T23:33:05;101476.44;;;19.74
29701;BMP280;57917;51.380;-0.176;2022-07-23T23:38:52;101463.16;;;19.69
29701;BMP280;57917;51.380;-0.176;2022-07-23T23:44:39;101463.53;;;19.59
29701;BMP280;57917;51.380;-0.176;2022-07-23T23:50:27;101461.97;;;19.58
29701;BMP280;57917;51.380;-0.176;2022-07-23T23:56:16;101448.00;;;19.65
